^^
Meteo Knjazevac Station Historical Data
Daily Summary for May 25, 2022 Units:  English    Metric   Both
Daily Weekly Monthly Yearly Custom
  High: Low: Average:
Temperature: 50.1 °F 33.6 °F 42.9 °F
Dew Point: 43.9 °F 33.3 °F 39.9 °F
Humidity: 99% 78.8% 89%
Wind Speed: 16.1mph 1mph 6.9mph
Wind Gust: 20mph - -
Wind- - SW
Pressure: 30.17 in 29.98 in -
Precipitation: 0.00 in    
Historical Graphs
 
 
Tabular Data for May 25, 2022
Time Temperature Dew Point Pressure Wind Wind Speed Wind Gust Humidity Rainfall Rate (Hourly) solar Conditions
00:04 44.4 °F 41.3 °F 29.98 in WSW 5.9 mph 7 mph 88.7% 0.00 in 0 W/m2
00:09 44.4 °F 41.1 °F 29.98 in WSW 6.5 mph 8 mph 88.1% 0.00 in 0 W/m2
00:14 44.4 °F 41.1 °F 29.98 in WSW 5.3 mph 7 mph 88% 0.00 in 0 W/m2
00:19 44.6 °F 41.3 °F 29.98 in SW 9.1 mph 10 mph 88% 0.00 in 0 W/m2
00:24 44.6 °F 41.3 °F 29.98 in WSW 9.9 mph 11 mph 88% 0.00 in 0 W/m2
00:29 44.6 °F 41.3 °F 29.98 in WSW 9.3 mph 11 mph 88% 0.00 in 0 W/m2
00:34 44.6 °F 41.4 °F 29.98 in WSW 8.9 mph 10 mph 88.3% 0.00 in 0 W/m2
00:39 44.6 °F 41.4 °F 29.98 in SW 6.1 mph 10 mph 88.4% 0.00 in 0 W/m2
00:44 44.5 °F 41.5 °F 29.98 in SW 6.4 mph 7 mph 89% 0.00 in 0 W/m2
00:49 44.4 °F 41.4 °F 29.98 in SW 5.9 mph 7 mph 89% 0.00 in 0 W/m2
00:54 44.4 °F 41.4 °F 29.99 in SW 8.6 mph 7.2 mph 89% 0.00 in 0 W/m2
00:59 44.2 °F 41.2 °F 29.99 in WSW 8.6 mph 11 mph 89% 0.00 in 0 W/m2
01:04 44.2 °F 41.3 °F 29.99 in WSW 6.1 mph 11 mph 89.6% 0.00 in 0 W/m2
01:09 44.1 °F 41.2 °F 29.99 in WSW 5.5 mph 7 mph 89.6% 0.00 in 0 W/m2
01:14 44 °F 41.2 °F 29.99 in SW 3.4 mph 7 mph 90% 0.00 in 0 W/m2
01:19 43.8 °F 41 °F 29.98 in SW 3.6 mph 4 mph 90% 0.00 in 0 W/m2
01:24 43.5 °F 40.9 °F 29.98 in SW 4.1 mph 5 mph 90.2% 0.00 in 0 W/m2
01:29 43.4 °F 41 °F 29.98 in WSW 2.7 mph 5 mph 91% 0.00 in 0 W/m2
01:34 43.3 °F 40.8 °F 29.98 in West 3.1 mph 3 mph 91% 0.00 in 0 W/m2
01:39 43.2 °F 40.7 °F 29.98 in WSW 3.3 mph 4 mph 91% 0.00 in 0 W/m2
01:44 43.2 °F 40.7 °F 29.98 in WSW 4 mph 4 mph 91% 0.00 in 0 W/m2
01:49 43.1 °F 40.6 °F 29.99 in WSW 4.4 mph 5 mph 91% 0.00 in 0 W/m2
01:54 43.2 °F 40.7 °F 29.99 in WSW 3.8 mph 6 mph 91% 0.00 in 0 W/m2
01:59 43.2 °F 40.7 °F 29.99 in WSW 3.6 mph 3.6 mph 91% 0.00 in 0 W/m2
02:04 43.2 °F 40.7 °F 29.99 in WSW 4.2 mph 5 mph 91% 0.00 in 0 W/m2
02:09 43.2 °F 40.7 °F 29.99 in SW 4.9 mph 5 mph 91% 0.00 in 0 W/m2
02:14 43.2 °F 40.9 °F 29.99 in WSW 5.1 mph 6 mph 91.8% 0.00 in 0 W/m2
02:19 43.2 °F 41.3 °F 29.99 in WSW 5.4 mph 6 mph 93% 0.00 in 0 W/m2
02:24 43.3 °F 41 °F 29.99 in SW 9 mph 7.4 mph 91.7% 0.00 in 0 W/m2
02:29 43.4 °F 41 °F 29.99 in SW 9.3 mph 12 mph 91% 0.00 in 0 W/m2
02:34 43.6 °F 41.1 °F 29.99 in WSW 11.5 mph 16 mph 91% 0.00 in 0 W/m2
02:39 43.7 °F 41.1 °F 29.99 in WSW 11.4 mph 12 mph 90.5% 0.00 in 0 W/m2
02:44 43.6 °F 40.9 °F 29.99 in WSW 11.7 mph 14 mph 90% 0.00 in 0 W/m2
02:49 43.5 °F 41.1 °F 29.99 in WSW 9.4 mph 14 mph 90.8% 0.00 in 0 W/m2
02:54 43.5 °F 41.1 °F 29.99 in WSW 9.4 mph 10 mph 91% 0.00 in 0 W/m2
02:59 43.4 °F 41 °F 29.99 in WSW 9.4 mph 10 mph 91% 0.00 in 0 W/m2
03:04 43.3 °F 40.9 °F 29.99 in WSW 8.9 mph 10 mph 91% 0.00 in 0 W/m2
03:09 43.4 °F 41 °F 29.99 in WSW 9.9 mph 10 mph 91% 0.00 in 0 W/m2
03:14 43.5 °F 41.1 °F 29.99 in WSW 9 mph 12 mph 91% 0.00 in 0 W/m2
03:19 43.5 °F 41.1 °F 29.99 in WSW 8.5 mph 9 mph 91% 0.00 in 0 W/m2
03:24 43.5 °F 41.1 °F 29.99 in WSW 8.2 mph 10 mph 91% 0.00 in 0 W/m2
03:29 43.7 °F 41.2 °F 30.00 in WSW 9.5 mph 9 mph 91% 0.00 in 0 W/m2
03:34 43.7 °F 41.2 °F 30.00 in WSW 8.4 mph 12 mph 91% 0.00 in 0 W/m2
03:39 43.7 °F 41.2 °F 30.00 in WSW 6 mph 8 mph 91% 0.00 in 0 W/m2
03:44 43.6 °F 41.1 °F 30.00 in West 6 mph 7 mph 91% 0.00 in 0 W/m2
03:49 43.5 °F 41.1 °F 30.00 in WSW 6.9 mph 6 mph 91% 0.00 in 0 W/m2
03:54 43.5 °F 41.1 °F 30.00 in WSW 8.7 mph 8 mph 91% 0.00 in 0 W/m2
03:59 43.6 °F 41.2 °F 30.00 in WSW 8.6 mph 9 mph 91% 0.00 in 0 W/m2
04:04 43.7 °F 41.2 °F 30.00 in WSW 7.7 mph 9 mph 91% 0.00 in 0 W/m2
04:09 43.7 °F 41.2 °F 30.00 in WSW 5.9 mph 8 mph 91% 0.00 in 0 W/m2
04:14 43.7 °F 41.2 °F 30.01 in West 6.1 mph 7 mph 91% 0.00 in 0 W/m2
04:19 43.7 °F 41.2 °F 30.01 in West 7.9 mph 9 mph 91% 0.00 in 0 W/m2
04:24 43.7 °F 41.2 °F 30.01 in West 6.2 mph 9 mph 91% 0.00 in 0 W/m2
04:29 43.7 °F 41.2 °F 30.01 in West 9.2 mph 8 mph 91% 0.00 in 0 W/m2
04:34 43.7 °F 41.2 °F 30.01 in West 7.9 mph 10 mph 91% 0.00 in 0 W/m2
04:39 43.7 °F 41.2 °F 30.01 in West 6.9 mph 8 mph 91% 0.00 in 0 W/m2
04:44 43.7 °F 41.2 °F 30.01 in West 6.6 mph 8 mph 91% 0.00 in 0 W/m2
04:49 43.6 °F 41.2 °F 30.01 in West 8 mph 8 mph 91% 0.00 in 0 W/m2
04:54 43.5 °F 41.1 °F 30.01 in West 7 mph 8 mph 91% 0.00 in 0 W/m2
04:59 43.4 °F 40.9 °F 30.01 in WSW 9.5 mph 8 mph 90.8% 0.00 in 0 W/m2
05:04 43.5 °F 40.7 °F 30.01 in WSW 10.3 mph 11 mph 89.7% 0.00 in 0 W/m2
05:09 43.7 °F 40.7 °F 30.01 in WSW 10.9 mph 12 mph 89% 0.00 in 0 W/m2
05:14 43.7 °F 40.7 °F 30.01 in WSW 12.2 mph 13 mph 89% 0.00 in 0 W/m2
05:19 43.7 °F 40.7 °F 30.02 in WSW 9 mph 13 mph 89% 0.00 in 0 W/m2
05:24 43.7 °F 40.5 °F 30.02 in WSW 10.5 mph 11 mph 88.2% 0.00 in 0 W/m2
05:29 43.7 °F 40.4 °F 30.02 in West 9.7 mph 12 mph 88% 0.00 in 0 W/m2
05:34 43.7 °F 40.4 °F 30.02 in West 9.1 mph 12 mph 88% 0.00 in 0 W/m2
05:39 43.7 °F 40.4 °F 30.02 in WSW 9.3 mph 14 mph 88% 0.00 in 0 W/m2
05:44 43.7 °F 40.4 °F 30.03 in West 8.2 mph 12 mph 88% 0.00 in 0 W/m2
05:49 43.7 °F 40.4 °F 30.03 in WSW 6.1 mph 8 mph 88% 0.00 in 0 W/m2
05:54 43.5 °F 40.2 °F 30.03 in WSW 7.8 mph 6.7 mph 88% 0.00 in 0 W/m2
05:59 43.5 °F 40.2 °F 30.03 in WSW 5 mph 10 mph 88% 0.00 in 0 W/m2
06:04 43.5 °F 40.2 °F 30.03 in WSW 4.1 mph 6 mph 88% 0.00 in 0 W/m2
06:09 43.3 °F 40.2 °F 30.03 in WNW 3.2 mph 6 mph 88.6% 0.00 in 0 W/m2
06:14 43.2 °F 40.1 °F 30.03 in West 5.4 mph 6.5 mph 89% 0.00 in 0 W/m2
06:19 43.2 °F 40.1 °F 30.04 in WSW 8.4 mph 10 mph 89% 0.00 in 0 W/m2
06:24 43.2 °F 40 °F 30.04 in West 8.7 mph 9 mph 88.8% 0.00 in 0 W/m2
06:29 43.3 °F 39.9 °F 30.04 in WSW 9.8 mph 14 mph 88% 0.00 in 1 W/m2
06:34 43.3 °F 40 °F 30.04 in WSW 7.6 mph 14 mph 88% 0.00 in 2 W/m2
06:39 43.3 °F 39.9 °F 30.05 in WSW 9.8 mph 9 mph 88% 0.00 in 4 W/m2
06:44 43.3 °F 40 °F 30.05 in WSW 10 mph 12 mph 88% 0.00 in 7 W/m2
06:49 43.3 °F 40 °F 30.05 in WSW 6.2 mph 11 mph 88% 0.00 in 10 W/m2
06:54 43.3 °F 40 °F 30.05 in West 7.5 mph 10 mph 88% 0.00 in 13 W/m2
06:59 43.3 °F 39.9 °F 30.06 in West 4.4 mph 10 mph 88% 0.00 in 24 W/m2
07:04 43.3 °F 39.9 °F 30.06 in West 4.7 mph 6 mph 88% 0.00 in 30 W/m2
07:09 43.3 °F 40 °F 30.06 in WSW 6.7 mph 5.6 mph 88% 0.00 in 38 W/m2
07:14 43.3 °F 40.2 °F 30.06 in West 7.7 mph 8 mph 88.5% 0.00 in 46 W/m2
07:19 43.5 °F 40.2 °F 30.06 in WSW 8.3 mph 8 mph 88.2% 0.00 in 63 W/m2
07:24 43.7 °F 40.4 °F 30.06 in West 10.1 mph 9 mph 88% 0.00 in 61 W/m2
07:29 43.8 °F 40.6 °F 30.06 in West 7.1 mph 12 mph 88.5% 0.00 in 59 W/m2
07:34 44 °F 40.7 °F 30.06 in West 8.4 mph 8 mph 88.4% 0.00 in 74 W/m2
07:39 44.2 °F 40.8 °F 30.06 in West 9.6 mph 10 mph 88% 0.00 in 64 W/m2
07:44 44.1 °F 40.7 °F 30.07 in West 7.8 mph 11 mph 88% 0.00 in 88 W/m2
07:49 44.2 °F 40.8 °F 30.07 in West 6.9 mph 8 mph 88% 0.00 in 105 W/m2
07:54 44.2 °F 40.9 °F 30.07 in West 8.3 mph 8 mph 88% 0.00 in 109 W/m2
07:59 44.4 °F 41.1 °F 30.07 in WSW 5.4 mph 9 mph 88% 0.00 in 182 W/m2
08:04 45.1 °F 41.5 °F 30.07 in WSW 5.4 mph 5 mph 87.1% 0.00 in 188 W/m2
08:09 45.4 °F 41.5 °F 30.08 in WSW 7.2 mph 7 mph 86% 0.00 in 201 W/m2
08:14 45.6 °F 41.4 °F 30.08 in WSW 7.8 mph 8 mph 85.3% 0.00 in 224 W/m2
08:19 45.9 °F 41.6 °F 30.08 in WSW 6.9 mph 9 mph 85% 0.00 in 216 W/m2
08:24 46.4 °F 42.1 °F 30.08 in WSW 7 mph 7 mph 85% 0.00 in 237 W/m2
08:29 46.8 °F 42.2 °F 30.08 in West 8.3 mph 9 mph 83.9% 0.00 in 206 W/m2
08:34 46.6 °F 41.7 °F 30.08 in WSW 9.5 mph 9 mph 83% 0.00 in 193 W/m2
08:39 45.9 °F 41.1 °F 30.08 in WSW 6.4 mph 12 mph 83.1% 0.00 in 180 W/m2
08:44 45.4 °F 40.8 °F 30.09 in WSW 7.2 mph 7 mph 83.5% 0.00 in 232 W/m2
08:49 45.4 °F 40.8 °F 30.09 in WSW 8.3 mph 9 mph 84% 0.00 in 211 W/m2
08:54 45.6 °F 41 °F 30.09 in WSW 6.4 mph 9 mph 84% 0.00 in 238 W/m2
08:59 45.7 °F 41.1 °F 30.08 in West 6.3 mph 8 mph 84% 0.00 in 69 W/m2
09:04 45.3 °F 40.6 °F 30.09 in West 10.2 mph 9 mph 83.5% 0.00 in 87 W/m2
09:09 45.1 °F 40.6 °F 30.09 in WSW 6 mph 12 mph 83.9% 0.00 in 174 W/m2
09:14 45.1 °F 40.5 °F 30.09 in West 11.8 mph 10 mph 84% 0.00 in 174 W/m2
09:19 45 °F 40.4 °F 30.09 in West 9.3 mph 14 mph 84% 0.00 in 134 W/m2
09:24 45 °F 40.7 °F 30.09 in West 7.1 mph 11 mph 84.8% 0.00 in 124 W/m2
09:29 45.1 °F 40.6 °F 30.09 in WSW 8.5 mph 10 mph 84.2% 0.00 in 122 W/m2
09:34 45.1 °F 40.6 °F 30.09 in WSW 8.3 mph 9 mph 84% 0.00 in 140 W/m2
09:39 45.2 °F 40.7 °F 30.10 in WSW 10.8 mph 9 mph 84% 0.00 in 140 W/m2
09:44 45.3 °F 40.8 °F 30.09 in WSW 10.7 mph 13 mph 84% 0.00 in 151 W/m2
09:49 45.4 °F 40.9 °F 30.10 in WSW 12 mph 12 mph 84.1% 0.00 in 129 W/m2
09:54 45.4 °F 41.2 °F 30.10 in WSW 11.4 mph 15 mph 84.9% 0.00 in 133 W/m2
09:59 45.5 °F 41.2 °F 30.10 in WSW 11.3 mph 12 mph 84.8% 0.00 in 153 W/m2
10:04 45.6 °F 41.3 °F 30.10 in WSW 9.6 mph 13 mph 84.8% 0.00 in 148 W/m2
10:09 45.7 °F 41.4 °F 30.10 in WSW 10 mph 12 mph 85% 0.00 in 125 W/m2
10:14 45.7 °F 41.4 °F 30.10 in WSW 8.8 mph 13 mph 85% 0.00 in 176 W/m2
10:19 45.9 °F 41.6 °F 30.10 in WSW 9.7 mph 13 mph 85% 0.00 in 188 W/m2
10:24 46 °F 41.8 °F 30.10 in WSW 11.8 mph 12 mph 85% 0.00 in 188 W/m2
10:29 46.1 °F 41.9 °F 30.10 in WSW 11.5 mph 13 mph 85% 0.00 in 198 W/m2
10:34 46.2 °F 42 °F 30.10 in WSW 12.6 mph 12 mph 85% 0.00 in 172 W/m2
10:39 46.2 °F 41.8 °F 30.10 in WSW 12.7 mph 14 mph 84.3% 0.00 in 178 W/m2
10:44 46.1 °F 41.7 °F 30.10 in WSW 15.2 mph 15 mph 84.3% 0.00 in 169 W/m2
10:49 46 °F 41.5 °F 30.10 in WSW 15.8 mph 17 mph 84.1% 0.00 in 166 W/m2
10:54 46 °F 41.7 °F 30.10 in WSW 14.6 mph 18 mph 84.7% 0.00 in 237 W/m2
10:59 46.3 °F 42 °F 30.10 in WSW 13.7 mph 17 mph 85% 0.00 in 470 W/m2
11:04 46.5 °F 42.2 °F 30.10 in WSW 12.9 mph 14 mph 84.8% 0.00 in 333 W/m2
11:09 46.5 °F 41.9 °F 30.10 in WSW 13.4 mph 14 mph 84.1% 0.00 in 148 W/m2
11:14 46.2 °F 41.7 °F 30.10 in WSW 16.1 mph 18 mph 84% 0.00 in 160 W/m2
11:19 46.2 °F 41.8 °F 30.10 in WSW 12.2 mph 20 mph 84.4% 0.00 in 220 W/m2
11:24 46.2 °F 41.9 °F 30.10 in WSW 13.7 mph 14 mph 84.5% 0.00 in 189 W/m2
11:29 46.3 °F 42 °F 30.10 in WSW 12.7 mph 16 mph 84.8% 0.00 in 156 W/m2
11:34 46.2 °F 42 °F 30.10 in WSW 13.3 mph 15 mph 84.9% 0.00 in 111 W/m2
11:39 46.1 °F 41.8 °F 30.10 in WSW 13.3 mph 15 mph 85% 0.00 in 93 W/m2
11:44 45.9 °F 41.7 °F 30.11 in WSW 10.5 mph 17 mph 85.2% 0.00 in 96 W/m2
11:49 45.9 °F 41.8 °F 30.11 in WSW 11.4 mph 13 mph 85.8% 0.00 in 111 W/m2
11:54 45.9 °F 41.9 °F 30.10 in WSW 9.7 mph 13 mph 86% 0.00 in 113 W/m2
11:59 45.8 °F 41.8 °F 30.10 in WSW 10.9 mph 12 mph 86% 0.00 in 88 W/m2
12:04 45.7 °F 41.7 °F 30.10 in West 10.9 mph 12 mph 86% 0.00 in 97 W/m2
12:09 45.7 °F 41.7 °F 30.10 in West 9.5 mph 13 mph 86% 0.00 in 157 W/m2
12:14 45.7 °F 41.7 °F 30.10 in West 11 mph 13 mph 86% 0.00 in 338 W/m2
12:19 46 °F 42 °F 30.10 in West 10.1 mph 12 mph 86% 0.00 in 338 W/m2
12:24 46 °F 42 °F 30.10 in West 10.1 mph 11 mph 86% 0.00 in 135 W/m2
12:29 45.9 °F 41.9 °F 30.10 in WSW 9.1 mph 11 mph 86% 0.00 in 210 W/m2
12:34 46 °F 42.1 °F 30.10 in WSW 8.1 mph 11 mph 86% 0.00 in 323 W/m2
12:39 46.2 °F 42.3 °F 30.10 in WSW 8.3 mph 9 mph 86% 0.00 in 145 W/m2
12:44 46.2 °F 42.3 °F 30.10 in WSW 9.5 mph 9 mph 86% 0.00 in 149 W/m2
12:49 46.2 °F 42.2 °F 30.10 in WSW 9.3 mph 11 mph 85.5% 0.00 in 137 W/m2
12:54 46.2 °F 42 °F 30.10 in WSW 11.1 mph 12 mph 85% 0.00 in 126 W/m2
12:59 46 °F 41.8 °F 30.10 in WSW 11 mph 12 mph 85% 0.00 in 115 W/m2
13:04 46 °F 41.8 °F 30.10 in WSW 11 mph 12 mph 85% 0.00 in 213 W/m2
13:09 46.3 °F 42 °F 30.09 in WSW 10.9 mph 12 mph 85% 0.00 in 369 W/m2
13:14 47 °F 42.6 °F 30.09 in WSW 11.7 mph 12 mph 84.5% 0.00 in 371 W/m2
13:19 47.6 °F 42.8 °F 30.09 in WSW 12.6 mph 14 mph 83.4% 0.00 in 325 W/m2
13:24 47.8 °F 43 °F 30.09 in WSW 10.9 mph 13 mph 83.4% 0.00 in 394 W/m2
13:29 48.1 °F 43.2 °F 30.09 in WSW 8.4 mph 12 mph 83% 0.00 in 423 W/m2
13:34 48.5 °F 43.1 °F 30.09 in WSW 9.9 mph 12 mph 81.3% 0.00 in 429 W/m2
13:39 48.8 °F 43.2 °F 30.09 in WSW 10.7 mph 11 mph 80.8% 0.00 in 380 W/m2
13:44 49.3 °F 43.5 °F 30.09 in WSW 10 mph 12 mph 80.4% 0.00 in 389 W/m2
13:49 49.5 °F 43.5 °F 30.09 in West 10.1 mph 12 mph 80% 0.00 in 325 W/m2
13:54 49.6 °F 43.7 °F 30.09 in West 11.3 mph 10 mph 80% 0.00 in 304 W/m2
13:59 49.8 °F 43.9 °F 30.09 in West 7.5 mph 13 mph 80% 0.00 in 294 W/m2
14:04 50 °F 43.9 °F 30.09 in West 8.4 mph 9 mph 79.5% 0.00 in 249 W/m2
14:09 49.8 °F 43.5 °F 30.09 in WSW 9.7 mph 9 mph 78.8% 0.00 in 232 W/m2
14:14 49.7 °F 43.7 °F 30.09 in WSW 5.4 mph 12 mph 79.6% 0.00 in 260 W/m2
14:19 50.1 °F 43.8 °F 30.09 in WSW 9.2 mph 6.3 mph 79.2% 0.00 in 245 W/m2
14:24 49.8 °F 43.6 °F 30.09 in WSW 10.9 mph 10 mph 78.8% 0.00 in 224 W/m2
14:29 49.6 °F 43.5 °F 30.09 in WSW 8.1 mph 12 mph 79.3% 0.00 in 192 W/m2
14:34 49.6 °F 43.5 °F 30.09 in WSW 9.3 mph 9 mph 79.2% 0.00 in 192 W/m2
14:39 49.6 °F 43.3 °F 30.09 in WSW 8.8 mph 10 mph 79% 0.00 in 186 W/m2
14:44 49.4 °F 43.1 °F 30.09 in WSW 11 mph 9 mph 79% 0.00 in 137 W/m2
14:49 49.1 °F 42.9 °F 30.09 in WSW 12 mph 14 mph 79% 0.00 in 81 W/m2
14:54 48.6 °F 42.5 °F 30.09 in WSW 9.5 mph 15 mph 79.2% 0.00 in 94 W/m2
14:59 48.3 °F 42.3 °F 30.09 in WSW 9 mph 8 mph 79.8% 0.00 in 97 W/m2
15:04 48.2 °F 42.3 °F 30.09 in WSW 6.9 mph 11 mph 80% 0.00 in 88 W/m2
15:09 48.2 °F 42.4 °F 30.09 in WSW 6.7 mph 8 mph 80.3% 0.00 in 80 W/m2
15:14 48.2 °F 42.6 °F 30.10 in WSW 5.7 mph 7 mph 81% 0.00 in 74 W/m2
15:19 48.3 °F 42.7 °F 30.10 in WSW 6.8 mph 7 mph 81% 0.00 in 59 W/m2
15:24 48 °F 42.5 °F 30.10 in West 4.5 mph 7 mph 81% 0.00 in 59 W/m2
15:29 48 °F 42.5 °F 30.10 in West 5.8 mph 8 mph 81% 0.00 in 41 W/m2
15:34 47.7 °F 42.1 °F 30.10 in WSW 5.8 mph 7 mph 81% 0.00 in 34 W/m2
15:39 47.4 °F 42.4 °F 30.10 in WSW 7.7 mph 7 mph 82.6% 0.00 in 24 W/m2
15:44 47 °F 42.1 °F 30.10 in WSW 8.2 mph 9 mph 83% 0.00 in 19 W/m2
15:49 46.8 °F 41.9 °F 30.10 in WSW 10.3 mph 9 mph 83% 0.00 in 14 W/m2
15:54 46.5 °F 41.8 °F 30.10 in West 11.1 mph 12 mph 83.5% 0.00 in 11 W/m2
15:59 46.3 °F 41.7 °F 30.10 in West 6.7 mph 14 mph 84% 0.00 in 8 W/m2
16:04 46 °F 41.5 °F 30.10 in West 4.6 mph 8 mph 84% 0.00 in 4 W/m2
16:09 45.8 °F 41.4 °F 30.10 in West 5.7 mph 7 mph 84.7% 0.00 in 2 W/m2
16:14 45.6 °F 41.4 °F 30.10 in NW 5.3 mph 7 mph 85% 0.00 in 1 W/m2
16:19 45.4 °F 41.2 °F 30.10 in North 5.5 mph 6 mph 85% 0.00 in 0 W/m2
16:24 45.3 °F 41.1 °F 30.10 in NNE 6 mph 7 mph 85% 0.00 in 0 W/m2
16:29 45.1 °F 41.2 °F 30.10 in NE 5.3 mph 7 mph 85.8% 0.00 in 0 W/m2
16:34 45 °F 41 °F 30.10 in NNE 5.4 mph 6 mph 86% 0.00 in 0 W/m2
16:39 45 °F 41 °F 30.11 in North 3.6 mph 6 mph 86% 0.00 in 0 W/m2
16:44 44.8 °F 40.8 °F 30.11 in NNE 2.6 mph 3 mph 86% 0.00 in 0 W/m2
16:49 44.6 °F 40.7 °F 30.11 in NNE 3.2 mph 3 mph 86% 0.00 in 0 W/m2
16:54 44.3 °F 40.8 °F 30.11 in NE 3.7 mph 5 mph 87.6% 0.00 in 0 W/m2
16:59 44 °F 40.7 °F 30.11 in NNE 6 mph 5 mph 88% 0.00 in 0 W/m2
17:04 44.1 °F 40.7 °F 30.11 in WNW 8 mph 10 mph 88% 0.00 in 0 W/m2
17:09 44.1 °F 40.7 °F 30.11 in West 6.2 mph 10 mph 88% 0.00 in 0 W/m2
17:14 44.1 °F 40.7 °F 30.11 in West 5.5 mph 7 mph 88% 0.00 in 0 W/m2
17:19 43.8 °F 40.5 °F 30.11 in WSW 5.3 mph 6 mph 88.1% 0.00 in 0 W/m2
17:24 43.7 °F 40.5 °F 30.11 in West 7.4 mph 8 mph 88.5% 0.00 in 0 W/m2
17:29 43.6 °F 40.5 °F 30.11 in NW 3.1 mph 8 mph 88.6% 0.00 in 0 W/m2
17:34 43.6 °F 40.6 °F 30.11 in North 3.6 mph 3.1 mph 89% 0.00 in 0 W/m2
17:39 43.4 °F 40.4 °F 30.11 in NNE 3.4 mph 5 mph 89% 0.00 in 0 W/m2
17:44 43.2 °F 40.1 °F 30.11 in NE 3.6 mph 4 mph 89% 0.00 in 0 W/m2
17:49 43 °F 40 °F 30.11 in NE 3.9 mph 5 mph 89% 0.00 in 0 W/m2
17:54 43 °F 40 °F 30.11 in NE 3.6 mph 5 mph 89% 0.00 in 0 W/m2
17:59 42.8 °F 39.9 °F 30.12 in NNE 4.1 mph 5 mph 89.2% 0.00 in 0 W/m2
18:04 42.7 °F 39.7 °F 30.12 in NNE 2.1 mph 5 mph 89.2% 0.00 in 0 W/m2
18:09 42.3 °F 39.5 °F 30.12 in NNW 2.3 mph 2 mph 89.9% 0.00 in 0 W/m2
18:14 42.1 °F 39.4 °F 30.12 in NNE 1.8 mph 2 mph 90% 0.00 in 0 W/m2
18:19 41.8 °F 39.1 °F 30.12 in NNE 1.4 mph 2 mph 90% 0.00 in 0 W/m2
18:24 41.4 °F 38.7 °F 30.12 in WSW 2.9 mph 2.2 mph 90% 0.00 in 0 W/m2
18:29 40.9 °F 38.4 °F 30.12 in SSW 4 mph 4 mph 90.7% 0.00 in 0 W/m2
18:34 40.5 °F 38.1 °F 30.12 in SSW 2.8 mph 5 mph 91% 0.00 in 0 W/m2
18:39 40.2 °F 37.8 °F 30.12 in SSW 2.2 mph 3 mph 91% 0.00 in 0 W/m2
18:44 40 °F 37.6 °F 30.12 in WSW 2.5 mph 2 mph 91% 0.00 in 0 W/m2
18:49 39.7 °F 37.7 °F 30.12 in SW 2.9 mph 3 mph 92.3% 0.00 in 0 W/m2
18:54 39.5 °F 37.6 °F 30.12 in SW 2.5 mph 3 mph 93% 0.00 in 0 W/m2
18:59 39.2 °F 37.3 °F 30.12 in WSW 2.3 mph 3 mph 93% 0.00 in 0 W/m2
19:04 39 °F 37.1 °F 30.12 in West 3.7 mph 3.4 mph 93% 0.00 in 0 W/m2
19:09 38.8 °F 37.2 °F 30.12 in WSW 3.7 mph 5 mph 93.7% 0.00 in 0 W/m2
19:14 38.8 °F 37.3 °F 30.12 in WSW 2.7 mph 5 mph 94% 0.00 in 0 W/m2
19:19 38.8 °F 37.2 °F 30.12 in West 4.2 mph 4.7 mph 94% 0.00 in 0 W/m2
19:24 38.7 °F 37.1 °F 30.12 in NE 4.3 mph 6 mph 94% 0.00 in 0 W/m2
19:29 38.5 °F 37 °F 30.12 in North 2.6 mph 6 mph 94.3% 0.00 in 0 W/m2
19:34 38.2 °F 36.9 °F 30.12 in West 2.1 mph 4 mph 95% 0.00 in 0 W/m2
19:39 38 °F 36.7 °F 30.13 in SSW 2.3 mph 3 mph 95% 0.00 in 0 W/m2
19:44 37.9 °F 36.6 °F 30.13 in ESE 3.2 mph 3 mph 95% 0.00 in 0 W/m2
19:49 37.9 °F 36.6 °F 30.13 in SE 2.5 mph 5 mph 95% 0.00 in 0 W/m2
19:54 37.8 °F 36.5 °F 30.13 in South 1.9 mph 3 mph 95% 0.00 in 0 W/m2
19:59 37.6 °F 36.3 °F 30.12 in WNW 3.3 mph 3 mph 95% 0.00 in 0 W/m2
20:04 37.3 °F 36.1 °F 30.13 in WSW 3.7 mph 4 mph 95% 0.00 in 0 W/m2
20:09 37.1 °F 35.9 °F 30.13 in WSW 3.7 mph 5 mph 95.3% 0.00 in 0 W/m2
20:14 37 °F 36 °F 30.13 in WSW 2.9 mph 5 mph 96% 0.00 in 0 W/m2
20:19 36.9 °F 35.9 °F 30.13 in SSW 3.1 mph 4 mph 96% 0.00 in 0 W/m2
20:24 36.6 °F 35.5 °F 30.13 in SSE 4.3 mph 4 mph 96% 0.00 in 0 W/m2
20:29 36.3 °F 35.3 °F 30.13 in SSE 4.7 mph 5 mph 96% 0.00 in 0 W/m2
20:34 36.1 °F 35.1 °F 30.13 in WSW 3.7 mph 6 mph 96% 0.00 in 0 W/m2
20:39 36 °F 35.1 °F 30.13 in WNW 4 mph 6 mph 96.5% 0.00 in 0 W/m2
20:44 35.7 °F 35.1 °F 30.13 in West 3.5 mph 5 mph 97.4% 0.00 in 0 W/m2
20:49 35.2 °F 34.6 °F 30.14 in WSW 2.3 mph 5 mph 97.6% 0.00 in 0 W/m2
20:54 34.8 °F 34.3 °F 30.14 in South 2 mph 3 mph 98% 0.00 in 0 W/m2
20:59 34.7 °F 34.4 °F 30.14 in ENE 2.4 mph 2 mph 98.9% 0.00 in 0 W/m2
21:04 34.7 °F 34.4 °F 30.14 in North 1.9 mph 3 mph 99% 0.00 in 0 W/m2
21:09 34.6 °F 34.4 °F 30.14 in WNW 2.5 mph 2 mph 99% 0.00 in 0 W/m2
21:14 34.5 °F 34.3 °F 30.14 in WSW 3.2 mph 3 mph 99% 0.00 in 0 W/m2
21:19 34.5 °F 34.3 °F 30.14 in WSW 3.1 mph 3 mph 99% 0.00 in 0 W/m2
21:24 34.5 °F 34.3 °F 30.14 in WSW 1.7 mph 3 mph 99% 0.00 in 0 W/m2
21:29 34.5 °F 34.3 °F 30.14 in NW 2.1 mph 2 mph 99% 0.00 in 0 W/m2
21:34 34.4 °F 34.2 °F 30.14 in North 1 mph 2 mph 99% 0.00 in 0 W/m2
21:39 34.3 °F 34.1 °F 30.14 in NW 2.2 mph 2 mph 99% 0.00 in 0 W/m2
21:44 34.3 °F 34.1 °F 30.15 in WNW 1.9 mph 2 mph 99% 0.00 in 0 W/m2
21:49 34.3 °F 34.1 °F 30.15 in WNW 2.5 mph 2.2 mph 99% 0.00 in 0 W/m2
21:54 34.2 °F 34 °F 30.15 in WNW 2.7 mph 3 mph 99% 0.00 in 0 W/m2
21:59 34.2 °F 33.9 °F 30.15 in West 3.1 mph 3 mph 99% 0.00 in 0 W/m2
22:04 34.2 °F 33.9 °F 30.16 in WSW 3.2 mph 3 mph 99% 0.00 in 0 W/m2
22:09 34.2 °F 33.9 °F 30.16 in SW 2.8 mph 4 mph 99% 0.00 in 0 W/m2
22:14 34.3 °F 34.1 °F 30.16 in South 4.3 mph 4.5 mph 99% 0.00 in 0 W/m2
22:19 34.6 °F 34.4 °F 30.16 in SSE 5.9 mph 8 mph 99% 0.00 in 0 W/m2
22:24 34.5 °F 34.3 °F 30.16 in South 4.1 mph 8 mph 99% 0.00 in 0 W/m2
22:29 34.4 °F 34.2 °F 30.16 in WSW 2.4 mph 5 mph 99% 0.00 in 0 W/m2
22:34 34.3 °F 34.1 °F 30.16 in West 1.3 mph 2 mph 99% 0.00 in 0 W/m2
22:39 34.3 °F 34.1 °F 30.16 in NNW 2.2 mph 3 mph 99% 0.00 in 0 W/m2
22:44 34.3 °F 34.1 °F 30.16 in NE 3.6 mph 3.8 mph 99% 0.00 in 0 W/m2
22:49 34.5 °F 34.3 °F 30.16 in East 6.1 mph 6 mph 99% 0.00 in 0 W/m2
22:54 35.1 °F 34.9 °F 30.16 in ESE 3.4 mph 7 mph 99% 0.00 in 0 W/m2
22:59 35.2 °F 34.9 °F 30.16 in ESE 2.7 mph 3 mph 99% 0.00 in 0 W/m2
23:04 34.8 °F 34.5 °F 30.16 in SSE 2 mph 3 mph 99% 0.00 in 0 W/m2
23:09 34.6 °F 34.3 °F 30.16 in South 3.2 mph 3 mph 99% 0.00 in 0 W/m2
23:14 34.4 °F 34.2 °F 30.17 in ESE 2.6 mph 3 mph 99% 0.00 in 0 W/m2
23:19 34.2 °F 33.9 °F 30.17 in ESE 2.6 mph 4 mph 99% 0.00 in 0 W/m2
23:24 34.1 °F 33.8 °F 30.17 in East 2.1 mph 3 mph 99% 0.00 in 0 W/m2
23:29 34 °F 33.7 °F 30.17 in ENE 1.6 mph 3 mph 99% 0.00 in 0 W/m2
23:34 34.1 °F 33.8 °F 30.17 in NE 2.1 mph 2 mph 99% 0.00 in 0 W/m2
23:39 34 °F 33.7 °F 30.17 in NE 3.5 mph 3.8 mph 99% 0.00 in 0 W/m2
23:44 34 °F 33.7 °F 30.17 in ENE 3.8 mph 6 mph 99% 0.00 in 0 W/m2
23:49 33.8 °F 33.5 °F 30.17 in ENE 3.3 mph 4 mph 99% 0.00 in 0 W/m2
23:54 33.8 °F 33.5 °F 30.17 in NE 2.5 mph 5 mph 99% 0.00 in 0 W/m2
23:59 33.6 °F 33.3 °F 30.17 in NE 2.3 mph 3 mph 99% 0.00 in 0 W/m2
Knjazevac, Serbia
Compliments of Weather Underground - 4 mb